createdAt,value
2023-01-01T00:00:19.913Z,9.50
2023-01-01T00:02:47.492Z,9.68
2023-01-01T00:05:14.965Z,11.63
2023-01-01T00:07:42.443Z,11.30
2023-01-01T00:10:29.181Z,10.73
2023-01-01T00:13:00.717Z,10.57
2023-01-01T00:15:28.696Z,10.90
2023-01-01T00:17:56.886Z,10.52
2023-01-01T00:20:27.560Z,13.02
2023-01-01T00:22:57.615Z,14.43
2023-01-01T00:25:25.743Z,12.63
2023-01-01T00:27:56.506Z,12.10
2023-01-01T00:30:25.186Z,9.45
2023-01-01T00:32:55.168Z,10.07
2023-01-01T00:35:27.652Z,9.95
2023-01-01T00:37:57.240Z,9.18
2023-01-01T00:40:24.723Z,7.70
2023-01-01T00:42:52.286Z,7.85
2023-01-01T00:45:23.038Z,7.57
2023-01-01T00:47:54.402Z,9.82
2023-01-01T00:50:22.846Z,10.18
2023-01-01T00:52:50.867Z,10.30
2023-01-01T00:55:18.882Z,8.27
2023-01-01T00:57:46.409Z,9.18
2023-01-01T01:00:15.363Z,9.90
2023-01-01T01:02:43.102Z,11.70
2023-01-01T01:05:11.191Z,8.50
2023-01-01T01:07:40.096Z,10.07
2023-01-01T01:10:08.736Z,13.20
2023-01-01T01:12:36.867Z,8.85
2023-01-01T01:15:05.952Z,9.93
2023-01-01T01:17:33.856Z,10.73
2023-01-01T01:20:01.376Z,9.93
2023-01-01T01:22:29.413Z,10.32
2023-01-01T01:24:57.907Z,11.95
2023-01-01T01:27:25.854Z,11.38
2023-01-01T01:29:54.167Z,13.13
2023-01-01T01:32:21.810Z,12.30
2023-01-01T01:34:49.402Z,10.38
2023-01-01T01:37:17.024Z,11.25
2023-01-01T01:39:47.797Z,10.57
2023-01-01T01:42:18.860Z,11.00
2023-01-01T01:44:46.873Z,12.10
2023-01-01T01:47:27.498Z,10.50
2023-01-01T01:50:02.843Z,12.73
2023-01-01T01:52:32.520Z,12.80
2023-01-01T01:55:02.523Z,14.48
2023-01-01T01:57:30.635Z,15.68
2023-01-01T02:00:01.492Z,13.73
2023-01-01T02:02:42.554Z,15.05
2023-01-01T02:05:10.396Z,14.35
2023-01-01T02:07:38.529Z,15.63
2023-01-01T02:10:06.572Z,17.02
2023-01-01T02:12:34.226Z,17.08
2023-01-01T02:15:01.735Z,18.60
2023-01-01T02:17:41.240Z,19.95
2023-01-01T02:20:40.228Z,20.15
2023-01-01T02:23:26.896Z,20.23
2023-01-01T02:26:12.964Z,18.30
2023-01-01T02:28:56.485Z,19.02
2023-01-01T02:31:48.121Z,17.70
2023-01-01T02:34:20.092Z,15.95
2023-01-01T02:36:53.379Z,17.70
2023-01-01T02:39:25.951Z,15.52
2023-01-01T02:44:25.157Z,12.95
2023-01-01T02:46:52.811Z,13.05
2023-01-01T02:49:20.446Z,12.52
2023-01-01T02:52:00.049Z,13.88
2023-01-01T02:55:29.176Z,14.15
2023-01-01T02:58:54.453Z,13.77
2023-01-01T03:01:41.042Z,15.27
2023-01-01T03:04:34.749Z,15.55
2023-01-01T03:07:12.895Z,14.98
2023-01-01T03:10:02.014Z,14.02
2023-01-01T03:12:43.955Z,12.65
2023-01-01T03:15:19.344Z,11.93
2023-01-01T03:18:09.199Z,11.52
2023-01-01T03:20:42.425Z,11.68
2023-01-01T03:23:17.188Z,12.15
2023-01-01T03:25:50.200Z,12.52
2023-01-01T03:28:45.769Z,13.40
2023-01-01T03:31:17.449Z,12.57
2023-01-01T03:33:49.757Z,13.97
2023-01-01T03:36:22.977Z,13.30
2023-01-01T03:38:56.356Z,12.88
2023-01-01T03:41:36.848Z,10.82
2023-01-01T03:44:16.064Z,9.40
2023-01-01T03:46:43.696Z,8.75
2023-01-01T03:49:13.008Z,8.00
2023-01-01T03:52:12.750Z,6.57
2023-01-01T03:54:55.182Z,5.55
2023-01-01T03:57:34.078Z,5.28
2023-01-01T04:00:10.018Z,4.72
2023-01-01T04:03:03.517Z,4.57
2023-01-01T04:05:32.670Z,3.65
2023-01-01T04:08:03.520Z,4.28
2023-01-01T04:10:34.505Z,3.28
2023-01-01T04:13:05.589Z,2.90
2023-01-01T04:15:34.417Z,3.20
2023-01-01T04:18:02.362Z,3.33
2023-01-01T04:20:29.824Z,2.65
2023-01-01T04:22:59.113Z,3.25
2023-01-01T04:25:27.260Z,2.97
2023-01-01T04:27:55.326Z,3.45
2023-01-01T04:30:22.971Z,3.50
2023-01-01T04:32:50.504Z,3.15
2023-01-01T04:35:18.175Z,3.53
2023-01-01T04:37:46.375Z,3.60
2023-01-01T04:40:14.463Z,3.55
2023-01-01T04:42:43.439Z,3.38
2023-01-01T04:45:15.352Z,2.92
2023-01-01T04:47:43.202Z,2.65
2023-01-01T04:50:11.156Z,3.22
2023-01-01T04:52:38.694Z,2.25
2023-01-01T04:55:06.625Z,2.60
2023-01-01T04:57:34.119Z,2.20
2023-01-01T05:00:01.612Z,1.98
2023-01-01T05:02:29.224Z,2.65
2023-01-01T05:04:56.688Z,3.25
2023-01-01T05:07:24.136Z,4.20
2023-01-01T05:09:51.594Z,4.30
2023-01-01T05:12:19.113Z,4.55
2023-01-01T05:14:46.579Z,5.13
2023-01-01T05:17:14.976Z,4.30
2023-01-01T05:19:43.374Z,5.35
2023-01-01T05:22:11.500Z,4.60
2023-01-01T05:24:39.088Z,4.47
2023-01-01T05:27:07.134Z,4.72
2023-01-01T05:29:34.582Z,5.43
2023-01-01T05:32:02.331Z,5.20
2023-01-01T05:36:58.821Z,4.97
2023-01-01T05:39:26.334Z,5.25
2023-01-01T05:41:53.856Z,4.65
2023-01-01T05:44:21.369Z,4.95
2023-01-01T05:46:48.887Z,5.10
2023-01-01T05:49:16.509Z,5.05
2023-01-01T05:51:44.055Z,5.10
2023-01-01T05:56:37.818Z,4.68
2023-01-01T05:59:05.289Z,4.40
2023-01-01T06:01:33.046Z,5.03
2023-01-01T06:04:00.803Z,4.80
2023-01-01T06:06:31.454Z,4.60
2023-01-01T06:09:04.148Z,4.75
2023-01-01T06:11:32.450Z,4.85
2023-01-01T06:14:01.261Z,4.53
2023-01-01T06:16:30.344Z,4.45
2023-01-01T06:18:58.355Z,4.30
2023-01-01T06:21:27.615Z,4.18
2023-01-01T06:23:57.560Z,4.40
2023-01-01T06:26:28.415Z,4.68
2023-01-01T06:28:57.147Z,4.30
2023-01-01T06:31:25.850Z,3.80
2023-01-01T06:33:53.441Z,4.57
2023-01-01T06:36:23.900Z,4.32
2023-01-01T06:38:54.742Z,4.20
2023-01-01T06:41:28.429Z,4.32
2023-01-01T06:43:57.386Z,3.78
2023-01-01T06:46:33.333Z,4.25
2023-01-01T06:49:06.410Z,4.15
2023-01-01T06:51:38.457Z,4.30
2023-01-01T06:54:06.957Z,4.25
2023-01-01T06:56:34.509Z,4.00
2023-01-01T06:59:07.326Z,4.20
2023-01-01T07:01:37.245Z,3.58
2023-01-01T07:04:08.569Z,4.00
2023-01-01T07:06:36.317Z,3.75
2023-01-01T07:09:05.264Z,4.35
2023-01-01T07:11:33.645Z,3.97
2023-01-01T07:14:02.586Z,4.63
2023-01-01T07:16:30.296Z,3.55
2023-01-01T07:18:58.642Z,3.70
2023-01-01T07:21:33.072Z,3.53
2023-01-01T07:24:03.173Z,3.88
2023-01-01T07:26:32.251Z,3.70
2023-01-01T07:29:06.927Z,3.75
2023-01-01T07:31:36.782Z,3.55
2023-01-01T07:34:05.415Z,3.80
2023-01-01T07:36:33.051Z,3.47
2023-01-01T07:39:00.496Z,3.38
2023-01-01T07:41:27.913Z,3.58
2023-01-01T07:43:55.562Z,3.42
2023-01-01T07:46:23.211Z,3.40
2023-01-01T07:48:50.732Z,3.40
2023-01-01T07:51:18.236Z,4.30
2023-01-01T07:53:45.936Z,3.35
2023-01-01T07:56:13.377Z,3.83
2023-01-01T07:58:42.108Z,3.80
2023-01-01T08:01:15.072Z,4.10
2023-01-01T08:03:42.846Z,3.80
2023-01-01T08:06:12.697Z,4.72
2023-01-01T08:08:41.430Z,4.10
2023-01-01T08:11:09.321Z,4.03
2023-01-01T08:13:37.083Z,5.05
2023-01-01T08:16:06.316Z,3.65
2023-01-01T08:18:33.940Z,4.40
2023-01-01T08:21:01.522Z,4.43
2023-01-01T08:23:29.073Z,4.03
2023-01-01T08:26:03.844Z,3.97
2023-01-01T08:28:32.010Z,4.00
2023-01-01T08:31:00.525Z,4.05
2023-01-01T08:33:29.963Z,4.07
2023-01-01T08:35:57.744Z,4.28
2023-01-01T08:38:25.369Z,3.95
2023-01-01T08:40:53.371Z,3.78
2023-01-01T08:43:20.962Z,4.95
2023-01-01T08:45:48.580Z,4.57
2023-01-01T08:48:16.131Z,3.97
2023-01-01T08:50:43.522Z,4.40
2023-01-01T08:53:11.108Z,3.95
2023-01-01T08:55:38.553Z,4.35
2023-01-01T08:58:08.918Z,4.00
2023-01-01T09:00:36.754Z,3.83
2023-01-01T09:03:04.514Z,4.38
2023-01-01T09:05:32.073Z,4.20
2023-01-01T09:07:59.465Z,4.30
2023-01-01T09:10:26.980Z,3.78
2023-01-01T09:12:54.596Z,4.38
2023-01-01T09:15:22.081Z,4.03
2023-01-01T09:17:50.553Z,4.03
2023-01-01T09:20:18.059Z,3.35
2023-01-01T09:22:45.533Z,3.50
2023-01-01T09:25:13.240Z,4.25
2023-01-01T09:27:40.714Z,3.70
2023-01-01T09:30:09.204Z,3.72
2023-01-01T09:32:36.703Z,3.63
2023-01-01T09:35:04.650Z,3.95
2023-01-01T09:37:32.094Z,3.72
2023-01-01T09:39:59.617Z,3.85
2023-01-01T09:42:45.815Z,4.05
2023-01-01T09:45:25.409Z,3.67
2023-01-01T09:48:11.791Z,3.92
2023-01-01T09:50:41.939Z,3.33
2023-01-01T09:53:21.233Z,4.80
2023-01-01T09:55:59.045Z,3.60
2023-01-01T09:58:34.526Z,3.72
2023-01-01T10:01:35.991Z,3.55
2023-01-01T10:04:15.499Z,3.53
2023-01-01T10:07:02.604Z,3.00
2023-01-01T10:10:07.031Z,3.25
2023-01-01T10:12:49.140Z,3.63
2023-01-01T10:17:53.814Z,3.20
2023-01-01T10:20:39.150Z,3.60
2023-01-01T10:23:26.719Z,4.13
2023-01-01T10:25:57.652Z,3.10
2023-01-01T10:28:39.157Z,4.30
2023-01-01T10:31:16.065Z,4.72
2023-01-01T10:33:45.803Z,4.65
2023-01-01T10:36:17.162Z,4.30
2023-01-01T10:38:45.105Z,4.00
2023-01-01T10:41:19.176Z,4.88
2023-01-01T10:43:48.730Z,4.45
2023-01-01T10:46:29.494Z,3.30
2023-01-01T10:49:05.097Z,4.53
2023-01-01T10:51:33.173Z,4.78
2023-01-01T10:54:01.183Z,3.58
2023-01-01T10:56:41.265Z,5.50
2023-01-01T10:59:38.887Z,5.43
2023-01-01T11:02:25.897Z,4.10
2023-01-01T11:05:19.273Z,3.28
2023-01-01T11:07:48.809Z,3.20
2023-01-01T11:10:23.725Z,2.88
2023-01-01T11:13:08.886Z,4.30
2023-01-01T11:15:38.076Z,3.38
2023-01-01T11:18:17.492Z,3.45
2023-01-01T11:20:51.145Z,2.95
2023-01-01T11:23:20.498Z,2.95
2023-01-01T11:26:19.215Z,3.33
2023-01-01T11:29:17.382Z,2.85
2023-01-01T11:31:47.671Z,3.30
2023-01-01T11:34:28.512Z,3.28
2023-01-01T11:37:14.639Z,2.97
2023-01-01T11:39:51.939Z,2.60
2023-01-01T11:42:25.380Z,3.35
2023-01-01T11:44:59.056Z,3.17
2023-01-01T11:47:41.181Z,3.17
2023-01-01T11:50:14.877Z,3.10
2023-01-01T11:52:50.751Z,2.75
2023-01-01T11:55:24.535Z,2.40
2023-01-01T11:58:19.821Z,2.58
2023-01-01T12:00:51.960Z,3.28
2023-01-01T12:03:33.668Z,3.35
2023-01-01T12:06:13.579Z,3.08
2023-01-01T12:08:51.873Z,3.15
2023-01-01T12:11:39.217Z,2.97
2023-01-01T12:14:30.925Z,2.55
2023-01-01T12:17:21.415Z,2.92
2023-01-01T12:19:56.757Z,2.47
2023-01-01T12:22:26.631Z,2.70
2023-01-01T12:24:55.381Z,2.95
2023-01-01T12:27:41.364Z,3.42
2023-01-01T12:30:20.822Z,2.50
2023-01-01T12:33:07.370Z,3.38
2023-01-01T12:36:14.073Z,2.78
2023-01-01T12:39:29.688Z,2.72
2023-01-01T12:42:06.484Z,2.70
2023-01-01T12:45:09.012Z,2.72
2023-01-01T12:48:02.580Z,2.83
2023-01-01T12:50:53.607Z,2.80
2023-01-01T12:53:32.025Z,3.47
2023-01-01T12:56:33.801Z,2.63
2023-01-01T12:59:11.314Z,3.40
2023-01-01T13:01:40.629Z,2.40
2023-01-01T13:04:13.075Z,2.67
2023-01-01T13:06:56.004Z,2.85
2023-01-01T13:09:26.523Z,2.40
2023-01-01T13:12:14.781Z,2.20
2023-01-01T13:14:45.417Z,3.10
2023-01-01T13:17:26.519Z,2.58
2023-01-01T13:20:23.742Z,3.08
2023-01-01T13:22:51.267Z,3.10
2023-01-01T13:25:22.711Z,3.03
2023-01-01T13:28:03.691Z,2.30
2023-01-01T13:30:39.889Z,2.38
2023-01-01T13:33:25.033Z,3.00
2023-01-01T13:36:12.059Z,2.70
2023-01-01T13:38:50.219Z,2.67
2023-01-01T13:41:37.143Z,2.60
2023-01-01T13:44:04.790Z,2.70
2023-01-01T13:46:44.344Z,2.45
2023-01-01T13:49:32.881Z,3.22
2023-01-01T13:52:18.920Z,3.15
2023-01-01T13:55:17.402Z,2.72
2023-01-01T13:58:03.729Z,3.00
2023-01-01T14:01:01.326Z,3.00
2023-01-01T14:03:30.980Z,2.20
2023-01-01T14:06:02.835Z,2.90
2023-01-01T14:08:34.652Z,2.97
2023-01-01T14:11:04.122Z,2.65
2023-01-01T14:13:40.583Z,2.30
2023-01-01T14:16:13.979Z,2.85
2023-01-01T14:18:48.961Z,2.70
2023-01-01T14:21:22.142Z,3.10
2023-01-01T14:23:54.705Z,3.28
2023-01-01T14:26:25.110Z,3.72
2023-01-01T14:29:06.981Z,2.45
2023-01-01T14:31:44.718Z,2.93
2023-01-01T14:34:15.040Z,2.92
2023-01-01T14:36:52.183Z,2.45
2023-01-01T14:39:34.363Z,2.28
2023-01-01T14:42:22.193Z,2.60
2023-01-01T14:44:50.944Z,2.53
2023-01-01T14:47:33.930Z,2.53
2023-01-01T14:50:24.477Z,2.85
2023-01-01T14:52:56.562Z,2.05
2023-01-01T14:55:28.197Z,2.50
2023-01-01T14:57:59.518Z,2.60
2023-01-01T15:00:31.081Z,2.97
2023-01-01T15:03:16.766Z,2.47
2023-01-01T15:05:49.426Z,2.03
2023-01-01T15:10:49.785Z,1.90
2023-01-01T15:13:19.976Z,2.55
2023-01-01T15:15:52.552Z,2.50
2023-01-01T15:18:38.613Z,1.88
2023-01-01T15:21:16.440Z,1.95
2023-01-01T15:23:53.365Z,2.50
2023-01-01T15:26:41.030Z,2.10
2023-01-01T15:29:11.027Z,2.75
2023-01-01T15:31:45.073Z,2.30
2023-01-01T15:34:27.686Z,2.28
2023-01-01T15:36:57.298Z,2.33
2023-01-01T15:39:25.340Z,2.30
2023-01-01T15:41:54.188Z,1.75
2023-01-01T15:44:29.591Z,2.40
2023-01-01T15:47:26.932Z,1.70
2023-01-01T15:50:27.573Z,2.20
2023-01-01T15:52:58.288Z,2.20
2023-01-01T15:55:29.773Z,2.08
2023-01-01T15:57:58.291Z,2.00
2023-01-01T16:00:31.697Z,2.00
2023-01-01T16:03:13.233Z,2.33
2023-01-01T16:05:56.646Z,1.90
2023-01-01T16:08:24.967Z,1.95
2023-01-01T16:10:52.924Z,2.40
2023-01-01T16:13:20.392Z,2.55
2023-01-01T16:15:54.716Z,2.08
2023-01-01T16:18:28.497Z,1.80
2023-01-01T16:20:56.648Z,1.90
2023-01-01T16:23:24.158Z,2.22
2023-01-01T16:25:51.976Z,1.73
2023-01-01T16:28:19.804Z,2.80
2023-01-01T16:30:47.909Z,2.88
2023-01-01T16:33:17.876Z,2.88
2023-01-01T16:35:45.762Z,2.20
2023-01-01T16:38:13.301Z,2.40
2023-01-01T16:40:40.738Z,1.95
2023-01-01T16:43:18.240Z,2.45
2023-01-01T16:45:46.245Z,1.95
2023-01-01T16:48:13.781Z,2.90
2023-01-01T16:50:41.319Z,2.30
2023-01-01T16:53:08.904Z,2.38
2023-01-01T16:55:36.338Z,2.25
2023-01-01T16:58:46.778Z,2.05
2023-01-01T17:00:58.730Z,2.20
2023-01-01T17:03:26.323Z,2.33
2023-01-01T17:05:53.990Z,2.20
2023-01-01T17:08:21.468Z,2.00
2023-01-01T17:10:49.942Z,2.38
2023-01-01T17:13:19.841Z,2.30
2023-01-01T17:15:58.545Z,2.00
2023-01-01T17:18:55.356Z,1.85
2023-01-01T17:21:13.740Z,2.58
2023-01-01T17:23:42.492Z,2.15
2023-01-01T17:26:11.571Z,2.38
2023-01-01T17:28:39.193Z,2.53
2023-01-01T17:31:11.766Z,2.42
2023-01-01T17:36:08.652Z,2.60
2023-01-01T17:38:36.911Z,2.60
2023-01-01T17:41:12.859Z,2.45
2023-01-01T17:43:43.346Z,2.33
2023-01-01T17:46:19.608Z,2.95
2023-01-01T17:48:47.695Z,2.22
2023-01-01T17:51:17.317Z,2.75
2023-01-01T17:53:46.483Z,2.78
2023-01-01T17:56:15.800Z,2.75
2023-01-01T17:58:45.494Z,2.40
2023-01-01T18:01:22.357Z,2.80
2023-01-01T18:04:03.172Z,2.65
2023-01-01T18:06:34.063Z,2.40
2023-01-01T18:09:06.125Z,2.72
2023-01-01T18:11:34.909Z,2.85
2023-01-01T18:14:03.725Z,3.25
2023-01-01T18:16:32.918Z,3.03
2023-01-01T18:19:01.999Z,2.40
2023-01-01T18:21:32.086Z,2.83
2023-01-01T18:24:01.036Z,2.95
2023-01-01T18:26:31.005Z,2.38
2023-01-01T18:29:02.046Z,2.58
2023-01-01T18:31:32.836Z,2.40
2023-01-01T18:34:04.857Z,2.50
2023-01-01T18:36:36.150Z,2.85
2023-01-01T18:39:29.890Z,2.53
2023-01-01T18:42:06.440Z,2.80
2023-01-01T18:44:35.135Z,2.83
2023-01-01T18:47:06.610Z,2.70
2023-01-01T18:49:36.388Z,2.78
2023-01-01T18:52:20.866Z,2.88
2023-01-01T18:54:51.575Z,2.33
2023-01-01T18:57:27.048Z,2.80
2023-01-01T19:00:26.199Z,2.78
2023-01-01T19:03:05.726Z,2.47
2023-01-01T19:05:35.587Z,2.63
2023-01-01T19:08:09.851Z,2.88
2023-01-01T19:10:55.835Z,3.70
2023-01-01T19:13:28.592Z,3.13
2023-01-01T19:16:12.707Z,2.78
2023-01-01T19:18:44.148Z,2.85
2023-01-01T19:21:11.666Z,2.90
2023-01-01T19:24:00.433Z,3.13
2023-01-01T19:26:34.327Z,3.08
2023-01-01T19:29:21.097Z,2.85
2023-01-01T19:31:56.860Z,2.92
2023-01-01T19:34:25.341Z,3.20
2023-01-01T19:36:54.726Z,3.70
2023-01-01T19:39:23.150Z,3.10
2023-01-01T19:41:52.820Z,2.85
2023-01-01T19:44:24.978Z,3.20
2023-01-01T19:46:53.025Z,3.03
2023-01-01T19:49:20.488Z,3.05
2023-01-01T19:51:48.206Z,3.08
2023-01-01T19:54:15.727Z,2.80
2023-01-01T19:56:43.330Z,2.75
2023-01-01T19:59:10.799Z,2.95
2023-01-01T20:01:38.601Z,3.40
2023-01-01T20:04:06.295Z,3.10
2023-01-01T20:06:36.524Z,2.60
2023-01-01T20:09:04.706Z,3.03
2023-01-01T20:11:36.266Z,3.05
2023-01-01T20:14:04.030Z,2.55
2023-01-01T20:16:32.825Z,2.90
2023-01-01T20:19:00.360Z,3.15
2023-01-01T20:21:46.413Z,3.03
2023-01-01T20:24:13.921Z,2.85
2023-01-01T20:26:43.251Z,3.50
2023-01-01T20:29:19.687Z,2.78
2023-01-01T20:31:54.799Z,2.83
2023-01-01T20:34:23.391Z,3.15
2023-01-01T20:37:09.584Z,3.30
2023-01-01T20:39:39.087Z,2.60
2023-01-01T20:42:06.644Z,3.00
2023-01-01T20:44:34.290Z,3.03
2023-01-01T20:47:01.725Z,3.00
2023-01-01T20:49:29.205Z,2.97
2023-01-01T20:51:56.922Z,3.30
2023-01-01T20:54:24.500Z,3.10
2023-01-01T20:56:52.649Z,3.00
2023-01-01T20:59:37.765Z,3.35
2023-01-01T21:02:08.357Z,3.00
2023-01-01T21:04:39.727Z,3.17
2023-01-01T21:07:09.495Z,2.83
2023-01-01T21:09:38.283Z,2.75
2023-01-01T21:12:06.914Z,2.80
2023-01-01T21:14:34.798Z,2.80
2023-01-01T21:17:29.742Z,2.50
2023-01-01T21:19:59.767Z,2.53
2023-01-01T21:22:28.479Z,2.70
2023-01-01T21:25:16.695Z,3.00
2023-01-01T21:27:45.269Z,2.83
2023-01-01T21:30:13.256Z,3.05
2023-01-01T21:32:45.871Z,2.50
2023-01-01T21:38:04.042Z,2.53
2023-01-01T21:40:51.995Z,2.30
2023-01-01T21:43:32.455Z,2.50
2023-01-01T21:46:19.415Z,2.30
2023-01-01T21:48:52.919Z,2.42
2023-01-01T21:51:27.788Z,2.55
2023-01-01T21:54:12.351Z,2.67
2023-01-01T21:56:45.977Z,2.60
2023-01-01T21:59:26.866Z,2.10
2023-01-01T22:02:28.999Z,2.22
2023-01-01T22:04:56.949Z,2.45
2023-01-01T22:10:46.578Z,1.90
2023-01-01T22:13:17.487Z,2.17
2023-01-01T22:15:46.080Z,1.92
2023-01-01T22:18:22.494Z,2.20
2023-01-01T22:20:50.583Z,2.22
2023-01-01T22:23:26.298Z,2.22
2023-01-01T22:25:53.924Z,1.70
2023-01-01T22:28:26.976Z,2.00
2023-01-01T22:30:59.078Z,1.90
2023-01-01T22:33:38.716Z,1.80
2023-01-01T22:36:26.529Z,1.70
2023-01-01T22:39:09.700Z,1.60
2023-01-01T22:41:37.360Z,1.95
2023-01-01T22:44:05.115Z,1.95
2023-01-01T22:46:41.082Z,1.60
2023-01-01T22:49:24.108Z,1.73
2023-01-01T22:51:54.917Z,2.00
2023-01-01T22:54:22.386Z,1.60
2023-01-01T22:56:50.414Z,1.42
2023-01-01T22:59:17.938Z,1.88
2023-01-01T23:01:45.408Z,1.38
2023-01-01T23:04:12.945Z,1.50
2023-01-01T23:06:40.429Z,1.63
2023-01-01T23:09:08.717Z,1.83
2023-01-01T23:11:36.302Z,2.20
2023-01-01T23:14:29.608Z,1.80
2023-01-01T23:16:57.068Z,1.70
2023-01-01T23:19:24.598Z,1.77
2023-01-01T23:21:52.172Z,1.95
2023-01-01T23:24:23.343Z,1.70
2023-01-01T23:26:52.366Z,2.13
2023-01-01T23:29:21.694Z,2.20
2023-01-01T23:31:49.996Z,1.83
2023-01-01T23:34:17.629Z,1.98
2023-01-01T23:36:45.304Z,2.00
2023-01-01T23:39:12.729Z,1.85
2023-01-01T23:41:40.281Z,1.92
2023-01-01T23:44:07.893Z,1.75
2023-01-01T23:46:38.389Z,2.00
2023-01-01T23:49:06.549Z,1.58
2023-01-01T23:51:34.610Z,1.40
2023-01-01T23:54:02.106Z,1.40
2023-01-01T23:56:29.687Z,1.48
2023-01-01T23:58:57.215Z,1.42
